Time;durP1;ratioP1;P1;durP2;ratioP2;P2;SDS_P1;SDS_P2;PMS_P1;PMS_P2;Temp;Humidity;BMP_temperature;BMP_pressure;BME280_temperature;BME280_humidity;BME280_pressure;Samples;Min_cycle;Max_cycle;Signal;HPM_P1;HPM_P2
2023/11/04 00:01:58;;;;;;;2.65;2.55;;;5.00;99.90;;;;;;4992926;28;20200;-73
2023/11/04 00:04:25;;;;;;;2.35;2.25;;;5.00;99.90;;;;;;4995291;28;20354;-74
2023/11/04 00:06:52;;;;;;;1.95;1.85;;;5.00;99.90;;;;;;4995589;28;20697;-74
2023/11/04 00:09:19;;;;;;;2.45;2.28;;;5.00;99.90;;;;;;4997792;28;20212;-73
2023/11/04 00:11:46;;;;;;;2.20;2.10;;;5.00;99.90;;;;;;4994778;28;20208;-73
2023/11/04 00:14:14;;;;;;;2.33;2.20;;;4.90;99.90;;;;;;4994090;28;20784;-74
2023/11/04 00:16:41;;;;;;;2.88;2.78;;;4.90;99.90;;;;;;4995228;28;20204;-73
2023/11/04 00:19:09;;;;;;;2.15;2.05;;;4.90;99.90;;;;;;4996889;28;20282;-74
2023/11/04 00:21:41;;;;;;;2.20;2.10;;;4.90;99.90;;;;;;5001404;28;20196;-73
2023/11/04 00:24:09;;;;;;;2.88;2.67;;;4.80;99.90;;;;;;5000605;28;20312;-74
2023/11/04 00:26:36;;;;;;;2.42;2.33;;;4.80;99.90;;;;;;5000192;28;20288;-73
2023/11/04 00:29:03;;;;;;;2.35;2.25;;;4.80;99.90;;;;;;5000567;28;20223;-74
2023/11/04 00:31:30;;;;;;;2.58;2.47;;;4.80;99.90;;;;;;5000420;28;20246;-74
2023/11/04 00:33:57;;;;;;;2.55;2.45;;;4.80;99.90;;;;;;5002179;28;20224;-74
2023/11/04 00:36:26;;;;;;;2.50;2.40;;;4.80;99.90;;;;;;5000378;28;20228;-74
2023/11/04 00:38:53;;;;;;;2.33;2.22;;;4.70;99.90;;;;;;4998066;28;20227;-74
2023/11/04 00:41:21;;;;;;;2.35;2.25;;;4.70;99.90;;;;;;4998313;28;20291;-75
2023/11/04 00:43:48;;;;;;;2.90;2.70;;;4.70;99.90;;;;;;5000670;28;20714;-74
2023/11/04 00:46:15;;;;;;;2.78;2.60;;;4.60;99.90;;;;;;5001532;28;20208;-74
2023/11/04 00:48:42;;;;;;;2.42;2.33;;;4.60;99.90;;;;;;4998355;28;20208;-74
2023/11/04 00:51:09;;;;;;;3.28;3.08;;;4.60;99.90;;;;;;4997900;28;20208;-74
2023/11/04 00:53:38;;;;;;;2.70;2.60;;;4.60;99.90;;;;;;5001874;28;20224;-73
2023/11/04 00:56:06;;;;;;;2.45;2.35;;;4.60;99.90;;;;;;5002025;28;20201;-74
2023/11/04 00:58:33;;;;;;;2.80;2.60;;;4.60;99.90;;;;;;4999255;28;20281;-74
2023/11/04 01:01:00;;;;;;;2.55;2.45;;;4.60;99.90;;;;;;5000719;28;20251;-73
2023/11/04 01:03:27;;;;;;;2.75;2.63;;;4.50;99.90;;;;;;4998538;28;20213;-74
2023/11/04 01:05:54;;;;;;;2.40;2.30;;;4.50;99.90;;;;;;5002018;28;20212;-74
2023/11/04 01:08:24;;;;;;;2.63;2.53;;;4.50;99.90;;;;;;5000031;28;20302;-74
2023/11/04 01:10:52;;;;;;;2.50;2.40;;;4.50;99.90;;;;;;5001000;28;20686;-75
2023/11/04 01:13:20;;;;;;;2.38;2.28;;;4.50;99.90;;;;;;5000709;28;20303;-74
2023/11/04 01:15:47;;;;;;;2.35;2.25;;;4.50;99.90;;;;;;5001954;28;20219;-75
2023/11/04 01:18:14;;;;;;;2.42;2.33;;;4.50;99.90;;;;;;4998621;28;20250;-74
2023/11/04 01:20:41;;;;;;;2.53;2.35;;;4.50;99.90;;;;;;5002785;28;20250;-73
2023/11/04 01:23:08;;;;;;;2.28;2.15;;;4.60;99.90;;;;;;5000647;28;20702;-74
2023/11/04 01:25:34;;;;;;;2.35;2.25;;;4.60;99.90;;;;;;5000732;28;20212;-74
2023/11/04 01:28:02;;;;;;;2.90;2.70;;;4.60;99.90;;;;;;4999558;28;20836;-74
2023/11/04 01:30:29;;;;;;;2.25;2.15;;;4.60;99.90;;;;;;4999200;28;20201;-74
2023/11/04 01:32:57;;;;;;;2.58;2.47;;;4.60;99.90;;;;;;5000010;28;20228;-74
2023/11/04 01:35:24;;;;;;;2.50;2.40;;;4.70;99.90;;;;;;4998752;28;20228;-74
2023/11/04 01:37:53;;;;;;;2.67;2.58;;;4.60;99.90;;;;;;4999739;28;20206;-74
2023/11/04 01:40:21;;;;;;;2.50;2.40;;;4.60;99.90;;;;;;5000933;28;20619;-74
2023/11/04 01:42:48;;;;;;;3.03;2.92;;;4.60;99.90;;;;;;5000375;28;20253;-74
2023/11/04 01:45:16;;;;;;;2.88;2.67;;;4.60;99.90;;;;;;4998631;28;20254;-74
2023/11/04 01:47:44;;;;;;;2.63;2.53;;;4.60;99.90;;;;;;5001527;28;20203;-74
2023/11/04 01:50:11;;;;;;;2.45;2.35;;;4.60;99.90;;;;;;5004099;28;20204;-74
2023/11/04 01:52:42;;;;;;;2.47;2.33;;;4.60;99.90;;;;;;5003733;28;20690;-74
2023/11/04 01:55:10;;;;;;;2.70;2.50;;;4.60;99.90;;;;;;4999692;28;20266;-74
2023/11/04 01:57:38;;;;;;;2.58;2.45;;;4.60;99.90;;;;;;5003033;28;20259;-74
2023/11/04 02:00:08;;;;;;;2.50;2.40;;;4.50;99.90;;;;;;4998271;28;20213;-75
2023/11/04 02:02:37;;;;;;;2.70;2.60;;;4.50;99.90;;;;;;5003208;28;20239;-74
2023/11/04 02:05:05;;;;;;;2.95;2.75;;;4.40;99.90;;;;;;5004494;28;20291;-74
2023/11/04 02:07:32;;;;;;;2.40;2.30;;;4.40;99.90;;;;;;5003823;28;20204;-74
2023/11/04 02:09:59;;;;;;;2.25;2.15;;;4.40;99.90;;;;;;5002825;28;20257;-74
2023/11/04 02:12:26;;;;;;;2.20;2.10;;;4.40;99.90;;;;;;5003849;28;20263;-74
2023/11/04 02:14:54;;;;;;;2.30;2.20;;;4.40;99.90;;;;;;5001608;28;20282;-74
2023/11/04 02:17:21;;;;;;;2.53;2.33;;;4.40;99.90;;;;;;4999424;28;20205;-76
2023/11/04 02:19:51;;;;;;;2.47;2.38;;;4.40;99.90;;;;;;5003589;28;20767;-74
2023/11/04 02:22:20;;;;;;;2.63;2.53;;;4.40;99.90;;;;;;5002353;28;20740;-74
2023/11/04 02:24:47;;;;;;;2.33;2.13;;;4.40;99.90;;;;;;5002082;28;20229;-74
2023/11/04 02:27:14;;;;;;;2.10;2.00;;;4.30;99.90;;;;;;5000262;28;20200;-74
2023/11/04 02:29:41;;;;;;;2.55;2.45;;;4.30;99.90;;;;;;5003991;28;20247;-74
2023/11/04 02:32:08;;;;;;;2.22;2.13;;;4.30;99.90;;;;;;5003228;28;20666;-74
2023/11/04 02:34:35;;;;;;;2.35;2.25;;;4.30;99.90;;;;;;5002803;28;20267;-74
2023/11/04 02:37:02;;;;;;;2.30;2.20;;;4.30;99.90;;;;;;5004307;28;20204;-74
2023/11/04 02:39:30;;;;;;;2.35;2.25;;;4.30;99.90;;;;;;5001158;28;20200;-75
2023/11/04 02:41:57;;;;;;;2.22;2.13;;;4.30;99.90;;;;;;5002300;28;20286;-74
2023/11/04 02:44:24;;;;;;;2.45;2.35;;;4.30;99.90;;;;;;4999396;28;20224;-74
2023/11/04 02:46:51;;;;;;;2.28;2.17;;;4.30;99.90;;;;;;5001703;28;20208;-72
2023/11/04 02:49:19;;;;;;;2.15;2.05;;;4.30;99.90;;;;;;5001597;28;20625;-73
2023/11/04 02:51:46;;;;;;;2.00;1.90;;;4.20;99.90;;;;;;4998771;28;20282;-73
2023/11/04 02:54:14;;;;;;;2.10;2.00;;;4.20;99.90;;;;;;5002220;28;20230;-73
2023/11/04 02:56:42;;;;;;;2.50;2.40;;;4.20;99.90;;;;;;5000734;28;20916;-73
2023/11/04 02:59:09;;;;;;;2.50;2.40;;;4.20;99.90;;;;;;5000482;28;20196;-73
2023/11/04 03:01:36;;;;;;;2.13;2.03;;;4.20;99.90;;;;;;5003072;28;20204;-73
2023/11/04 03:04:06;;;;;;;2.33;2.13;;;4.20;99.90;;;;;;5002730;28;20228;-76
2023/11/04 03:06:33;;;;;;;2.70;2.50;;;4.20;99.90;;;;;;5003379;28;20291;-73
2023/11/04 03:09:00;;;;;;;2.50;2.40;;;4.10;99.90;;;;;;5003986;28;20208;-73
2023/11/04 03:11:27;;;;;;;2.25;2.15;;;4.00;99.90;;;;;;5002975;28;20204;-73
2023/11/04 03:13:56;;;;;;;2.25;2.15;;;3.90;99.90;;;;;;5001906;28;20228;-74
2023/11/04 03:16:23;;;;;;;2.13;2.03;;;3.90;99.90;;;;;;5002601;28;20814;-74
2023/11/04 03:18:51;;;;;;;2.45;2.35;;;3.90;99.90;;;;;;5000667;28;20272;-75
2023/11/04 03:21:18;;;;;;;2.60;2.50;;;3.90;99.90;;;;;;5003917;28;20208;-74
2023/11/04 03:23:47;;;;;;;2.53;2.42;;;3.90;99.90;;;;;;5000734;28;20231;-74
2023/11/04 03:26:14;;;;;;;2.42;2.33;;;3.90;99.90;;;;;;5003630;28;20209;-74
2023/11/04 03:28:43;;;;;;;2.55;2.45;;;3.90;99.90;;;;;;5000658;28;20301;-74
2023/11/04 03:31:12;;;;;;;2.17;2.08;;;4.00;99.90;;;;;;5002600;28;20266;-75
2023/11/04 03:33:38;;;;;;;2.00;1.90;;;4.00;99.90;;;;;;4998379;28;21566;-73
2023/11/04 03:36:07;;;;;;;2.20;2.00;;;3.90;99.90;;;;;;4997651;28;20734;-73
2023/11/04 03:38:35;;;;;;;1.92;1.83;;;4.00;99.90;;;;;;5001286;28;20267;-73
2023/11/04 03:41:02;;;;;;;2.30;2.20;;;3.90;99.90;;;;;;5001226;28;20212;-74
2023/11/04 03:43:29;;;;;;;1.77;1.67;;;3.90;99.90;;;;;;4998697;28;20831;-74
2023/11/04 03:45:56;;;;;;;2.63;2.50;;;3.90;99.90;;;;;;4996945;28;20279;-74
2023/11/04 03:48:26;;;;;;;2.25;2.15;;;3.90;99.90;;;;;;5000020;28;20231;-73
2023/11/04 03:50:53;;;;;;;2.08;1.98;;;3.90;99.90;;;;;;5002013;28;20212;-74
2023/11/04 03:53:22;;;;;;;2.40;2.30;;;3.90;99.90;;;;;;5001443;28;20278;-74
2023/11/04 03:55:49;;;;;;;2.47;2.38;;;3.90;99.90;;;;;;4999804;28;20224;-77
2023/11/04 03:58:17;;;;;;;1.90;1.80;;;3.90;99.90;;;;;;4999049;28;20209;-74
2023/11/04 04:00:45;;;;;;;2.00;1.90;;;3.80;99.90;;;;;;5001591;28;20200;-76
2023/11/04 04:03:13;;;;;;;3.97;2.47;;;3.80;99.90;;;;;;5000599;28;20289;-74
2023/11/04 04:05:41;;;;;;;1.98;1.88;;;3.80;99.90;;;;;;4998990;28;20255;-76
2023/11/04 04:08:08;;;;;;;2.33;2.22;;;3.80;99.90;;;;;;5001632;28;20480;-74
2023/11/04 04:10:36;;;;;;;2.40;2.30;;;3.80;99.90;;;;;;5001581;28;20203;-75
2023/11/04 04:13:03;;;;;;;2.28;2.17;;;3.80;99.90;;;;;;4999283;28;20232;-75
2023/11/04 04:15:30;;;;;;;2.20;2.10;;;3.80;99.90;;;;;;4998818;28;20826;-77
2023/11/04 04:17:57;;;;;;;2.50;2.40;;;3.70;99.90;;;;;;5002360;28;20912;-77
2023/11/04 04:20:24;;;;;;;2.05;1.95;;;3.70;99.90;;;;;;4999606;28;20289;-75
2023/11/04 04:22:53;;;;;;;2.10;2.00;;;3.70;99.90;;;;;;4999040;28;20231;-79
2023/11/04 04:25:20;;;;;;;2.38;2.28;;;3.60;99.90;;;;;;4998509;28;20197;-76
2023/11/04 04:27:47;;;;;;;2.42;2.33;;;3.60;99.90;;;;;;4999957;28;20203;-75
2023/11/04 04:30:16;;;;;;;2.15;2.05;;;3.60;99.90;;;;;;4998192;28;20204;-78
2023/11/04 04:32:43;;;;;;;2.65;2.55;;;3.60;99.90;;;;;;4998273;28;20583;-76
2023/11/04 04:35:10;;;;;;;2.25;2.15;;;3.60;99.90;;;;;;4999710;28;20223;-75
2023/11/04 04:37:38;;;;;;;2.00;1.90;;;3.60;99.90;;;;;;5000513;28;20286;-78
2023/11/04 04:40:08;;;;;;;1.88;1.83;;;3.60;99.90;;;;;;4997822;28;20201;-77
2023/11/04 04:42:36;;;;;;;2.33;2.22;;;3.60;99.90;;;;;;5001582;28;20212;-77
2023/11/04 04:45:04;;;;;;;2.17;2.08;;;3.60;99.90;;;;;;4998483;28;20287;-74
2023/11/04 04:47:33;;;;;;;2.20;2.10;;;3.60;99.90;;;;;;5001223;28;20258;-76
2023/11/04 04:50:00;;;;;;;2.45;2.25;;;3.60;99.90;;;;;;4997693;28;20254;-76
2023/11/04 04:52:27;;;;;;;2.03;1.92;;;3.60;99.90;;;;;;5001597;28;20258;-74
2023/11/04 04:54:54;;;;;;;2.08;1.98;;;3.60;99.90;;;;;;4998756;28;20236;-75
2023/11/04 04:57:23;;;;;;;2.15;2.05;;;3.60;99.90;;;;;;4999971;28;20197;-75
2023/11/04 04:59:50;;;;;;;2.05;1.95;;;3.50;99.90;;;;;;5000401;28;20209;-78
2023/11/04 05:02:18;;;;;;;2.17;2.08;;;3.60;99.90;;;;;;5001332;28;20654;-75
2023/11/04 05:04:45;;;;;;;2.30;2.20;;;3.60;99.90;;;;;;4996898;28;20228;-77
2023/11/04 05:07:12;;;;;;;2.60;2.50;;;3.60;99.90;;;;;;5002284;28;20201;-75
2023/11/04 05:09:40;;;;;;;2.10;1.92;;;3.60;99.90;;;;;;5004500;28;20207;-76
2023/11/04 05:12:07;;;;;;;2.42;2.33;;;3.60;99.90;;;;;;4999333;28;20204;-76
2023/11/04 05:14:36;;;;;;;2.30;2.20;;;3.60;99.90;;;;;;5000729;28;20335;-78
2023/11/04 05:17:03;;;;;;;2.30;2.20;;;3.60;99.90;;;;;;5004624;28;20270;-76
2023/11/04 05:19:30;;;;;;;2.25;2.15;;;3.50;99.90;;;;;;5002584;28;20303;-78
2023/11/04 05:21:57;;;;;;;2.13;2.03;;;3.50;99.90;;;;;;5001453;28;20212;-77
2023/11/04 05:24:24;;;;;;;2.22;2.13;;;3.50;99.90;;;;;;4999700;28;20274;-76
2023/11/04 05:26:52;;;;;;;2.30;2.20;;;3.50;99.90;;;;;;5004620;28;20200;-77
2023/11/04 05:29:20;;;;;;;2.20;2.10;;;3.50;99.90;;;;;;5000664;28;20290;-77
2023/11/04 05:31:48;;;;;;;2.47;2.30;;;3.50;99.90;;;;;;5007052;28;20222;-77
2023/11/04 05:34:16;;;;;;;2.47;2.38;;;3.50;99.90;;;;;;5002330;28;20228;-78
2023/11/04 05:36:44;;;;;;;2.22;2.13;;;3.50;99.90;;;;;;5004417;28;20278;-76
2023/11/04 05:39:12;;;;;;;2.20;2.10;;;3.50;99.90;;;;;;5004475;28;20263;-77
2023/11/04 05:41:40;;;;;;;2.38;2.28;;;3.50;99.90;;;;;;4999050;28;20208;-78
2023/11/04 05:44:08;;;;;;;2.20;2.10;;;3.50;99.90;;;;;;5004665;28;20259;-80
2023/11/04 05:46:35;;;;;;;2.33;2.13;;;3.50;99.90;;;;;;5000939;28;20195;-76
2023/11/04 05:49:04;;;;;;;2.45;2.35;;;3.50;99.90;;;;;;5004265;28;20574;-77
2023/11/04 05:51:31;;;;;;;2.88;2.70;;;3.50;99.90;;;;;;5002620;28;20275;-75
2023/11/04 05:54:00;;;;;;;2.40;2.30;;;3.50;99.90;;;;;;5000368;28;20227;-77
2023/11/04 05:56:28;;;;;;;2.72;2.55;;;3.50;99.90;;;;;;5001449;28;20220;-76
2023/11/04 05:58:55;;;;;;;2.33;2.22;;;3.50;99.90;;;;;;5000016;28;20216;-75
2023/11/04 06:01:25;;;;;;;1.98;1.88;;;3.40;99.90;;;;;;5001087;28;20212;-78
2023/11/04 06:03:52;;;;;;;2.20;2.10;;;3.40;99.90;;;;;;5000904;28;20282;-76
2023/11/04 06:06:21;;;;;;;2.20;2.10;;;3.40;99.90;;;;;;5002884;28;20200;-76
2023/11/04 06:08:48;;;;;;;2.47;2.38;;;3.40;99.90;;;;;;5000324;28;20287;-74
2023/11/04 06:11:15;;;;;;;2.30;2.20;;;3.40;99.90;;;;;;5001675;28;20201;-76
2023/11/04 06:13:44;;;;;;;2.30;2.20;;;3.40;99.90;;;;;;5004186;28;20223;-78
2023/11/04 06:16:11;;;;;;;2.45;2.35;;;3.30;99.90;;;;;;5001481;28;20685;-80
2023/11/04 06:18:38;;;;;;;2.17;2.08;;;3.30;99.90;;;;;;5001838;28;20287;-78
2023/11/04 06:21:06;;;;;;;2.33;2.22;;;3.30;99.90;;;;;;5002905;28;20201;-77
2023/11/04 06:23:35;;;;;;;2.17;2.08;;;3.30;99.90;;;;;;5001288;28;20216;-81
2023/11/04 06:26:02;;;;;;;2.30;2.20;;;3.30;99.90;;;;;;5004260;28;20259;-81
2023/11/04 06:28:29;;;;;;;2.30;2.20;;;3.30;99.90;;;;;;5003664;28;20212;-78
2023/11/04 06:30:56;;;;;;;2.28;2.17;;;3.30;99.90;;;;;;5001644;28;20299;-78
2023/11/04 06:33:23;;;;;;;2.22;2.13;;;3.30;99.90;;;;;;5003037;28;20220;-75
2023/11/04 06:35:51;;;;;;;1.92;1.83;;;3.40;99.90;;;;;;5002703;28;20217;-80
2023/11/04 06:38:18;;;;;;;2.15;2.05;;;3.40;99.90;;;;;;5000711;28;20275;-79
2023/11/04 06:40:46;;;;;;;2.58;2.47;;;3.40;99.90;;;;;;5004045;28;20205;-75
2023/11/04 06:43:13;;;;;;;2.78;2.67;;;3.40;99.90;;;;;;5003003;28;20281;-76
2023/11/04 06:45:40;;;;;;;2.63;2.53;;;3.50;99.90;;;;;;5001256;28;20200;-78
2023/11/04 06:48:07;;;;;;;2.40;2.30;;;3.50;99.90;;;;;;5002265;28;20200;-75
2023/11/04 06:50:36;;;;;;;2.60;2.50;;;3.50;99.90;;;;;;4998118;28;20227;-77
2023/11/04 06:53:03;;;;;;;2.20;2.10;;;3.50;99.90;;;;;;5001331;28;20229;-75
2023/11/04 06:55:32;;;;;;;2.15;2.05;;;3.50;99.90;;;;;;5001585;28;20232;-79
2023/11/04 06:58:00;;;;;;;2.50;2.40;;;3.50;99.90;;;;;;5002686;28;20626;-81
2023/11/04 07:00:27;;;;;;;2.55;2.45;;;3.50;99.90;;;;;;5000253;28;20290;-77
2023/11/04 07:02:54;;;;;;;2.85;2.35;;;3.50;99.90;;;;;;5001594;28;20236;-79
2023/11/04 07:05:22;;;;;;;2.50;2.40;;;3.50;99.90;;;;;;5001094;28;20200;-78
2023/11/04 07:07:50;;;;;;;5.55;5.15;;;3.80;99.90;;;;;;5006933;28;20207;-78
2023/11/04 07:10:18;;;;;;;6.50;6.00;;;4.70;99.90;;;;;;5006323;28;20215;-75
2023/11/04 07:12:45;;;;;;;5.40;5.00;;;5.80;99.90;;;;;;5003800;28;20281;-74
2023/11/04 07:15:15;;;;;;;4.00;3.70;;;6.80;99.90;;;;;;5002622;28;20243;-74
2023/11/04 07:17:42;;;;;;;5.53;3.42;;;7.70;99.90;;;;;;5005456;28;20662;-74
2023/11/04 07:20:10;;;;;;;3.00;2.80;;;8.60;99.90;;;;;;5000577;28;20200;-74
2023/11/04 07:22:37;;;;;;;3.00;2.80;;;9.20;99.90;;;;;;5004420;28;20238;-74
2023/11/04 07:25:04;;;;;;;2.63;2.42;;;9.60;99.90;;;;;;5001489;28;20764;-74
2023/11/04 07:27:32;;;;;;;3.40;3.10;;;10.00;99.90;;;;;;5003747;28;20200;-74
2023/11/04 07:30:00;;;;;;;2.67;2.47;;;10.30;99.90;;;;;;5000413;28;20204;-76
2023/11/04 07:32:28;;;;;;;2.35;2.25;;;10.60;99.90;;;;;;4986944;28;20318;-75
2023/11/04 07:34:55;;;;;;;2.30;2.10;;;10.90;99.90;;;;;;4999423;28;20256;-74
2023/11/04 07:37:23;;;;;;;2.65;2.45;;;11.20;99.90;;;;;;5002854;28;20215;-81
2023/11/04 07:39:50;;;;;;;1.95;1.83;;;11.50;99.90;;;;;;5003113;28;20197;-81
2023/11/04 07:42:17;;;;;;;2.55;2.30;;;11.80;99.90;;;;;;5003446;28;20200;-80
2023/11/04 07:44:44;;;;;;;3.33;2.83;;;11.90;99.90;;;;;;5002513;28;20216;-75
2023/11/04 07:47:11;;;;;;;2.65;2.45;;;11.90;99.90;;;;;;5002186;28;20626;-75
2023/11/04 07:49:41;;;;;;;2.60;2.40;;;11.90;99.90;;;;;;5004365;28;20200;-76
2023/11/04 07:52:09;;;;;;;2.15;1.95;;;11.80;99.90;;;;;;5002325;28;20254;-75
2023/11/04 07:54:36;;;;;;;2.92;2.60;;;11.90;99.90;;;;;;5003358;28;20216;-74
2023/11/04 07:57:03;;;;;;;3.22;2.78;;;12.10;99.90;;;;;;5001921;28;20270;-75
2023/11/04 07:59:32;;;;;;;2.78;2.58;;;12.30;99.90;;;;;;5001380;28;20204;-77
2023/11/04 08:01:59;;;;;;;2.30;2.17;;;12.50;99.90;;;;;;5001684;28;20204;-74
2023/11/04 08:04:26;;;;;;;2.00;1.90;;;12.70;99.90;;;;;;5015814;28;20795;-76
2023/11/04 08:06:55;;;;;;;2.13;2.00;;;12.40;99.90;;;;;;4997846;28;20266;-75
2023/11/04 08:09:22;;;;;;;2.17;2.08;;;12.30;99.90;;;;;;5002464;28;20200;-75
2023/11/04 08:11:50;;;;;;;1.95;1.85;;;12.40;99.90;;;;;;5003135;28;20196;-76
2023/11/04 08:14:17;;;;;;;1.98;1.88;;;12.50;99.90;;;;;;5000442;28;20221;-74
2023/11/04 08:16:44;;;;;;;2.28;2.10;;;12.50;99.90;;;;;;5002167;28;20223;-76
2023/11/04 08:19:11;;;;;;;2.58;2.38;;;12.40;99.90;;;;;;5003811;28;20213;-75
2023/11/04 08:21:38;;;;;;;2.50;2.30;;;12.30;99.90;;;;;;5006540;28;20278;-75
2023/11/04 08:24:08;;;;;;;2.35;2.15;;;12.60;99.90;;;;;;5007074;28;20232;-76
2023/11/04 08:26:40;;;;;;;2.03;1.92;;;12.90;99.90;;;;;;5001891;28;20204;-77
2023/11/04 08:29:07;;;;;;;2.05;1.95;;;13.10;99.90;;;;;;5004399;28;20292;-75
2023/11/04 08:31:34;;;;;;;2.20;2.00;;;13.00;99.90;;;;;;5002056;28;20586;-75
2023/11/04 08:34:02;;;;;;;2.22;2.13;;;12.90;99.90;;;;;;5004291;28;20231;-78
2023/11/04 08:36:29;;;;;;;2.40;2.20;;;13.10;99.90;;;;;;5002799;28;20224;-78
2023/11/04 08:38:56;;;;;;;2.00;1.90;;;13.20;99.90;;;;;;5000729;28;20254;-76
2023/11/04 08:41:25;;;;;;;2.47;2.00;;;13.30;99.90;;;;;;5004785;28;20291;-79
2023/11/04 08:43:53;;;;;;;1.98;1.88;;;13.30;99.90;;;;;;5006807;28;20255;-78
2023/11/04 08:46:20;;;;;;;2.00;1.90;;;13.20;99.90;;;;;;5000867;28;20200;-78
2023/11/04 08:48:47;;;;;;;1.88;1.77;;;13.00;99.90;;;;;;5005120;28;20209;-82
2023/11/04 08:51:14;;;;;;;1.98;1.85;;;12.80;99.90;;;;;;5006186;28;20287;-75
2023/11/04 08:53:41;;;;;;;1.98;1.88;;;13.00;99.90;;;;;;4999729;28;20298;-80
2023/11/04 08:56:09;;;;;;;2.17;2.05;;;13.30;99.90;;;;;;5004032;28;20220;-76
2023/11/04 08:58:38;;;;;;;2.15;1.98;;;13.40;99.90;;;;;;5001243;28;20259;-77
2023/11/04 09:01:06;;;;;;;2.60;1.90;;;13.20;99.90;;;;;;5006312;28;20219;-75
2023/11/04 09:03:33;;;;;;;1.90;1.80;;;13.00;99.90;;;;;;5011795;28;20823;-78
2023/11/04 09:06:03;;;;;;;1.67;1.58;;;12.80;99.90;;;;;;5010133;28;20212;-78
2023/11/04 09:08:30;;;;;;;1.75;1.65;;;12.70;99.90;;;;;;5005764;28;20208;-76
2023/11/04 09:10:57;;;;;;;1.80;1.70;;;13.00;99.90;;;;;;5002391;28;20267;-76
2023/11/04 09:13:24;;;;;;;1.67;1.58;;;13.50;99.90;;;;;;5002610;28;20310;-76
2023/11/04 09:15:54;;;;;;;2.28;2.10;;;13.70;99.90;;;;;;5004103;28;20713;-76
2023/11/04 09:18:21;;;;;;;1.80;1.70;;;13.70;99.90;;;;;;4998885;28;20777;-75
2023/11/04 09:20:49;;;;;;;2.78;2.13;;;13.70;99.90;;;;;;4981602;28;20291;-78
2023/11/04 09:23:16;;;;;;;1.70;1.60;;;13.50;99.90;;;;;;5002104;28;20298;-81
2023/11/04 09:25:45;;;;;;;2.10;1.75;;;13.50;99.90;;;;;;5004089;28;20207;-75
2023/11/04 09:28:13;;;;;;;1.80;1.70;;;13.30;99.90;;;;;;5002742;28;20209;-76
2023/11/04 09:30:41;;;;;;;1.80;1.70;;;13.20;99.90;;;;;;4993667;28;20204;-76
2023/11/04 09:33:10;;;;;;;1.80;1.70;;;13.10;99.90;;;;;;5002581;28;20252;-77
2023/11/04 09:35:37;;;;;;;2.97;1.92;;;13.20;99.90;;;;;;5005908;28;20291;-75
2023/11/04 09:38:06;;;;;;;2.00;1.90;;;13.30;99.90;;;;;;5001254;28;20224;-75
2023/11/04 09:40:33;;;;;;;3.22;1.67;;;13.40;99.90;;;;;;4998974;28;20895;-76
2023/11/04 09:43:01;;;;;;;2.20;2.00;;;13.30;99.90;;;;;;5003800;28;20231;-78
2023/11/04 09:45:28;;;;;;;1.50;1.40;;;13.30;99.90;;;;;;5000133;28;20710;-76
2023/11/04 09:47:56;;;;;;;2.17;1.42;;;13.20;99.90;;;;;;4999271;28;20200;-76
2023/11/04 09:50:25;;;;;;;2.00;1.80;;;13.30;99.90;;;;;;4996344;28;20233;-79
2023/11/04 09:52:59;;;;;;;3.10;2.03;;;13.70;99.90;;;;;;5002535;28;20897;-76
2023/11/04 09:55:27;;;;;;;2.10;1.92;;;13.70;99.90;;;;;;4998917;28;20242;-76
2023/11/04 09:57:54;;;;;;;2.10;1.90;;;14.10;99.90;;;;;;4997586;28;20251;-75
2023/11/04 10:00:23;;;;;;;1.65;1.55;;;14.40;99.90;;;;;;4996293;28;20366;-75
2023/11/04 10:02:50;;;;;;;2.40;2.30;;;14.50;99.90;;;;;;4998383;28;20232;-76
2023/11/04 10:05:18;;;;;;;2.05;1.58;;;14.40;99.90;;;;;;4997026;28;20346;-74
2023/11/04 10:07:47;;;;;;;2.30;2.10;;;14.30;99.90;;;;;;4983280;28;20247;-75
2023/11/04 10:10:14;;;;;;;1.80;1.70;;;14.50;99.90;;;;;;4997044;28;20253;-74
2023/11/04 10:12:42;;;;;;;2.15;1.80;;;14.80;99.90;;;;;;4996090;28;20258;-75
2023/11/04 10:15:10;;;;;;;1.60;1.50;;;14.90;99.90;;;;;;4995550;28;20204;-77
2023/11/04 10:17:37;;;;;;;2.55;1.50;;;15.00;99.90;;;;;;4998688;28;20278;-75
2023/11/04 10:20:11;;;;;;;1.55;1.45;;;15.20;99.90;;;;;;4999277;28;20312;-78
2023/11/04 10:22:38;;;;;;;1.80;1.70;;;15.30;99.90;;;;;;4999641;28;20251;-77
2023/11/04 10:25:09;;;;;;;1.90;1.80;;;14.70;99.90;;;;;;4998644;28;20204;-74
2023/11/04 10:27:38;;;;;;;1.80;1.70;;;14.30;99.90;;;;;;4997877;28;20864;-75
2023/11/04 10:30:08;;;;;;;1.70;1.60;;;14.20;99.90;;;;;;4979765;28;20208;-76
2023/11/04 10:32:37;;;;;;;1.70;1.60;;;14.30;99.90;;;;;;5004690;28;20256;-76
2023/11/04 10:35:09;;;;;;;1.50;1.40;;;14.20;99.90;;;;;;4993595;28;21949;-75
2023/11/04 10:37:37;;;;;;;3.53;1.60;;;13.80;99.90;;;;;;4998198;28;20263;-76
2023/11/04 10:40:07;;;;;;;1.70;1.60;;;13.00;99.90;;;;;;4997656;28;20208;-76
2023/11/04 10:42:40;;;;;;;1.98;1.80;;;12.60;99.90;;;;;;5000969;28;20215;-80
2023/11/04 10:45:14;;;;;;;1.80;1.70;;;12.50;99.90;;;;;;4995292;28;20212;-79
2023/11/04 10:47:53;;;;;;;4.30;1.95;;;12.50;99.90;;;;;;4997212;28;20254;-76
2023/11/04 10:50:26;;;;;;;1.73;1.63;;;12.70;99.90;;;;;;5001664;28;20282;-77
2023/11/04 10:53:02;;;;;;;1.77;1.67;;;13.30;99.90;;;;;;5000983;28;20235;-77
2023/11/04 10:55:43;;;;;;;1.88;1.77;;;13.60;99.90;;;;;;4995028;28;20240;-77
2023/11/04 10:58:18;;;;;;;2.00;1.80;;;13.50;99.90;;;;;;4996754;28;20282;-81
2023/11/04 11:00:46;;;;;;;2.03;1.92;;;13.00;99.90;;;;;;4996347;28;20235;-81
2023/11/04 11:03:15;;;;;;;1.73;1.63;;;12.70;99.90;;;;;;4998714;28;20788;-80
2023/11/04 11:05:44;;;;;;;2.10;1.83;;;12.20;99.90;;;;;;4996239;28;20231;-78
2023/11/04 11:08:12;;;;;;;1.63;1.52;;;12.00;99.90;;;;;;4997486;28;20196;-78
2023/11/04 11:10:46;;;;;;;1.80;1.70;;;11.90;99.90;;;;;;4996646;28;20262;-77
2023/11/04 11:13:20;;;;;;;2.00;1.90;;;11.70;99.90;;;;;;4994072;28;20270;-80
2023/11/04 11:15:49;;;;;;;1.88;1.77;;;11.60;99.90;;;;;;4998642;28;20196;-81
2023/11/04 11:18:27;;;;;;;1.60;1.50;;;11.40;99.90;;;;;;4996824;28;20308;-80
2023/11/04 11:20:54;;;;;;;1.73;1.63;;;11.30;99.90;;;;;;5006939;28;20207;-80
2023/11/04 11:23:32;;;;;;;1.67;1.58;;;11.30;99.90;;;;;;4999569;28;20304;-80
2023/11/04 11:26:08;;;;;;;1.75;1.65;;;11.30;99.90;;;;;;5003541;28;20214;-82
2023/11/04 11:28:37;;;;;;;2.00;1.90;;;11.30;99.90;;;;;;5009216;28;20846;-79
2023/11/04 11:31:05;;;;;;;1.63;1.52;;;11.10;99.90;;;;;;5001897;28;20199;-82
2023/11/04 11:33:32;;;;;;;1.70;1.60;;;11.00;99.90;;;;;;5000997;28;20220;-85
2023/11/04 11:36:01;;;;;;;2.05;1.95;;;10.80;99.90;;;;;;5003893;28;20949;-88
2023/11/04 11:38:29;;;;;;;1.92;1.70;;;10.80;99.90;;;;;;5002901;28;20315;-78
2023/11/04 11:41:03;;;;;;;1.90;1.80;;;10.90;99.90;;;;;;5000913;28;20311;-88
2023/11/04 11:43:32;;;;;;;2.05;1.85;;;11.00;99.90;;;;;;4992628;28;20236;-86
2023/11/04 11:46:04;;;;;;;3.13;1.92;;;11.10;99.90;;;;;;5007410;28;20287;-78
2023/11/04 11:48:35;;;;;;;2.47;1.95;;;11.10;99.90;;;;;;5003593;28;20200;-79
2023/11/04 11:51:03;;;;;;;2.88;2.08;;;11.10;99.90;;;;;;4988484;28;20742;-81
2023/11/04 11:53:33;;;;;;;1.90;1.80;;;11.30;99.90;;;;;;5004310;28;20235;-82
2023/11/04 11:56:02;;;;;;;1.92;1.83;;;11.60;99.90;;;;;;5001293;28;20343;-79
2023/11/04 11:58:31;;;;;;;1.83;1.73;;;11.90;99.90;;;;;;4997627;28;20212;-79
2023/11/04 12:01:03;;;;;;;1.90;1.80;;;11.70;99.90;;;;;;4993953;28;20874;-77
2023/11/04 12:03:31;;;;;;;2.10;2.00;;;11.30;99.90;;;;;;4993124;28;20224;-77
2023/11/04 12:05:59;;;;;;;2.13;2.03;;;11.20;99.90;;;;;;4999356;28;20629;-79
2023/11/04 12:08:26;;;;;;;1.77;1.67;;;11.10;99.90;;;;;;4996018;28;20227;-78
2023/11/04 12:10:53;;;;;;;2.08;1.95;;;11.20;99.90;;;;;;4999948;28;20554;-80
2023/11/04 12:13:21;;;;;;;1.73;1.63;;;11.60;99.90;;;;;;4993997;28;20247;-84
2023/11/04 12:15:50;;;;;;;1.60;1.50;;;11.60;99.90;;;;;;5003584;28;20697;-81
2023/11/04 12:18:18;;;;;;;2.25;1.80;;;11.50;99.90;;;;;;5008095;28;20505;-81
2023/11/04 12:20:46;;;;;;;2.00;1.90;;;11.50;99.90;;;;;;4989589;28;20290;-80
2023/11/04 12:23:15;;;;;;;1.90;1.80;;;11.60;99.90;;;;;;5006413;28;20593;-86
2023/11/04 12:25:43;;;;;;;2.20;2.10;;;11.60;99.90;;;;;;5002426;28;20224;-84
2023/11/04 12:28:11;;;;;;;2.00;1.90;;;11.30;99.90;;;;;;4998662;28;20793;-84
2023/11/04 12:30:38;;;;;;;1.67;1.58;;;11.10;99.90;;;;;;5001876;28;20252;-79
2023/11/04 12:33:09;;;;;;;1.83;1.73;;;11.20;99.90;;;;;;5000112;28;20227;-85
2023/11/04 12:35:36;;;;;;;1.90;1.75;;;11.40;99.90;;;;;;5007366;28;20211;-83
2023/11/04 12:38:05;;;;;;;1.90;1.80;;;11.50;99.90;;;;;;5008335;28;20821;-83
2023/11/04 12:40:34;;;;;;;2.22;2.13;;;11.50;99.90;;;;;;4998509;28;20634;-84
2023/11/04 12:43:02;;;;;;;1.50;1.50;;;11.30;99.90;;;;;;5000278;28;20239;-82
2023/11/04 12:45:30;;;;;;;1.70;1.60;;;10.90;99.90;;;;;;5003537;28;20247;-80
2023/11/04 12:48:01;;;;;;;1.75;1.65;;;10.80;99.90;;;;;;4999795;28;20201;-79
2023/11/04 12:50:33;;;;;;;1.48;1.48;;;10.80;99.90;;;;;;5009320;28;20287;-78
2023/11/04 12:53:02;;;;;;;1.70;1.60;;;10.90;99.90;;;;;;5000707;28;20736;-78
2023/11/04 12:55:29;;;;;;;1.75;1.65;;;11.10;99.90;;;;;;5009617;28;20571;-76
2023/11/04 12:57:56;;;;;;;1.70;1.60;;;11.20;99.90;;;;;;5007366;28;20221;-83